createdAt,value
2018-06-14T00:01:39.382Z,100558.45
2018-06-14T00:04:07.305Z,100556.83
2018-06-14T00:06:35.233Z,100557.38
2018-06-14T00:09:05.173Z,100559.83
2018-06-14T00:11:33.014Z,100565.34
2018-06-14T00:14:00.905Z,100551.84
2018-06-14T00:16:28.768Z,100552.19
2018-06-14T00:18:56.667Z,100555.22
2018-06-14T00:21:24.559Z,100557.16
2018-06-14T00:23:52.397Z,100556.59
2018-06-14T00:26:20.221Z,100552.47
2018-06-14T00:28:48.072Z,100550.23
2018-06-14T00:31:15.946Z,100542.27
2018-06-14T00:33:43.765Z,100541.96
2018-06-14T00:36:11.688Z,100541.13
2018-06-14T00:38:39.578Z,100541.11
2018-06-14T00:41:07.505Z,100545.22
2018-06-14T00:43:35.469Z,100554.59
2018-06-14T00:46:03.385Z,100550.70
2018-06-14T00:48:31.246Z,100547.40
2018-06-14T00:50:59.113Z,100545.77
2018-06-14T00:53:26.988Z,100539.13
2018-06-14T00:55:54.873Z,100542.13
2018-06-14T00:58:22.673Z,100550.38
2018-06-14T01:00:50.546Z,100544.34
2018-06-14T01:03:18.453Z,100546.79
2018-06-14T01:05:46.365Z,100544.59
2018-06-14T01:08:14.314Z,100541.86
2018-06-14T01:10:42.249Z,100543.73
2018-06-14T01:13:10.157Z,100545.69
2018-06-14T01:15:38.073Z,100548.14
2018-06-14T01:18:06.031Z,100544.28
2018-06-14T01:20:34.048Z,100540.97
2018-06-14T01:23:01.912Z,100543.97
2018-06-14T01:25:29.821Z,100542.05
2018-06-14T01:27:57.673Z,100544.77
2018-06-14T01:30:25.501Z,100541.46
2018-06-14T01:32:53.357Z,100535.95
2018-06-14T01:35:21.233Z,100537.02
2018-06-14T01:38:06.241Z,100533.44
2018-06-14T01:40:34.092Z,100542.48
2018-06-14T01:43:01.986Z,100540.80
2018-06-14T01:45:29.778Z,100545.21
2018-06-14T01:47:57.682Z,100539.70
2018-06-14T01:50:25.544Z,100546.63
2018-06-14T01:52:53.473Z,100542.45
2018-06-14T01:55:21.369Z,100546.38
2018-06-14T01:57:49.185Z,100548.03
2018-06-14T02:00:17.042Z,100548.55
2018-06-14T02:02:44.901Z,100538.08
2018-06-14T02:05:12.733Z,100538.36
2018-06-14T02:07:40.637Z,100541.11
2018-06-14T02:10:08.625Z,100536.12
2018-06-14T02:12:36.566Z,100532.88
2018-06-14T02:15:04.636Z,100543.32
2018-06-14T02:17:32.485Z,100536.43
2018-06-14T02:20:00.262Z,100540.59
2018-06-14T02:22:28.098Z,100544.41
2018-06-14T02:24:56.025Z,100547.73
2018-06-14T02:27:23.896Z,100550.16
2018-06-14T02:29:51.755Z,100546.63
2018-06-14T02:32:19.741Z,100540.80
2018-06-14T02:34:47.657Z,100539.97
2018-06-14T02:37:15.601Z,100541.34
2018-06-14T02:39:43.525Z,100541.34
2018-06-14T02:42:11.422Z,100539.42
2018-06-14T02:44:39.308Z,100538.00
2018-06-14T02:47:07.184Z,100536.08
2018-06-14T02:49:35.069Z,100539.38
2018-06-14T02:52:03.028Z,100539.11
2018-06-14T02:54:30.994Z,100538.31
2018-06-14T02:56:58.859Z,100542.13
2018-06-14T02:59:26.694Z,100544.34
2018-06-14T03:01:54.569Z,100538.55
2018-06-14T03:04:22.484Z,100539.42
2018-06-14T03:06:50.345Z,100542.69
2018-06-14T03:09:18.219Z,100544.62
2018-06-14T03:11:46.102Z,100542.13
2018-06-14T03:14:14.253Z,100539.05
2018-06-14T03:16:42.240Z,100534.06
2018-06-14T03:19:10.134Z,100536.03
2018-06-14T03:21:38.124Z,100540.20
2018-06-14T03:24:06.083Z,100541.27
2018-06-14T03:26:33.921Z,100537.69
2018-06-14T03:29:03.614Z,100535.77
2018-06-14T03:31:32.523Z,100536.30
2018-06-14T03:34:00.469Z,100537.41
2018-06-14T03:36:29.849Z,100542.41
2018-06-14T03:38:57.761Z,100539.94
2018-06-14T03:41:25.705Z,100541.86
2018-06-14T03:43:53.554Z,100536.08
2018-06-14T03:46:21.518Z,100542.17
2018-06-14T03:48:49.388Z,100536.94
2018-06-14T03:51:17.271Z,100536.39
2018-06-14T03:53:45.073Z,100539.70
2018-06-14T03:56:12.978Z,100542.72
2018-06-14T03:58:40.817Z,100547.97
2018-06-14T04:01:08.733Z,100546.30
2018-06-14T04:03:36.606Z,100543.83
2018-06-14T04:06:04.562Z,100551.54
2018-06-14T04:08:32.391Z,100551.86
2018-06-14T04:11:00.309Z,100552.44
2018-06-14T04:13:28.229Z,100555.75
2018-06-14T04:15:56.933Z,100555.23
2018-06-14T04:18:24.776Z,100552.48
2018-06-14T04:20:52.621Z,100555.16
2018-06-14T04:23:20.485Z,100557.44
2018-06-14T04:25:48.354Z,100564.58
2018-06-14T04:28:16.276Z,100554.72
2018-06-14T04:30:44.161Z,100559.95
2018-06-14T04:33:12.241Z,100556.72
2018-06-14T04:35:40.169Z,100563.88
2018-06-14T04:38:08.132Z,100568.05
2018-06-14T04:40:36.085Z,100566.70
2018-06-14T04:43:04.189Z,100564.80
2018-06-14T04:45:32.054Z,100566.48
2018-06-14T04:48:00.699Z,100564.88
2018-06-14T04:50:28.688Z,100558.02
2018-06-14T04:52:56.640Z,100552.00
2018-06-14T04:55:24.499Z,100556.17
2018-06-14T04:57:52.426Z,100555.05
2018-06-14T05:00:20.253Z,100550.92
2018-06-14T05:02:48.120Z,100551.47
2018-06-14T05:05:16.065Z,100550.06
2018-06-14T05:07:43.921Z,100556.56
2018-06-14T05:10:11.773Z,100552.47
2018-06-14T05:12:41.034Z,100550.14
2018-06-14T05:15:08.909Z,100554.56
2018-06-14T05:17:36.816Z,100555.20
2018-06-14T05:20:04.649Z,100553.65
2018-06-14T05:22:32.577Z,100556.82
2018-06-14T05:25:00.472Z,100553.65
2018-06-14T05:27:28.961Z,100551.81
2018-06-14T05:29:58.342Z,100554.87
2018-06-14T05:32:26.304Z,100549.20
2018-06-14T05:34:54.226Z,100542.33
2018-06-14T05:37:22.097Z,100553.89
2018-06-14T05:39:50.060Z,100554.63
2018-06-14T05:42:18.263Z,100546.42
2018-06-14T05:44:46.310Z,100548.21
2018-06-14T05:47:14.698Z,100547.09
2018-06-14T05:49:42.936Z,100549.47
2018-06-14T05:52:10.773Z,100551.11
2018-06-14T05:54:39.111Z,100547.59
2018-06-14T05:57:09.971Z,100552.69
2018-06-14T05:59:38.832Z,100547.56
2018-06-14T06:02:06.800Z,100547.17
2018-06-14T06:04:34.777Z,100539.61
2018-06-14T06:07:02.720Z,100540.92
2018-06-14T06:09:30.561Z,100536.16
2018-06-14T06:11:58.546Z,100532.78
2018-06-14T06:14:26.460Z,100534.23
2018-06-14T06:16:58.860Z,100536.30
2018-06-14T06:19:26.845Z,100536.63
2018-06-14T06:21:54.745Z,100543.05
2018-06-14T06:24:22.686Z,100538.52
2018-06-14T06:26:50.503Z,100537.61
2018-06-14T06:29:18.998Z,100541.16
2018-06-14T06:31:46.841Z,100537.66
2018-06-14T06:34:14.734Z,100537.27
2018-06-14T06:36:42.660Z,100530.89
2018-06-14T06:39:12.349Z,100527.27
2018-06-14T06:41:40.460Z,100532.73
2018-06-14T06:44:10.415Z,100533.28
2018-06-14T06:46:38.460Z,100537.06
2018-06-14T06:49:06.385Z,100538.75
2018-06-14T06:51:34.809Z,100535.97
2018-06-14T06:54:03.145Z,100538.70
2018-06-14T06:56:31.466Z,100529.25
2018-06-14T06:58:59.401Z,100530.53
2018-06-14T07:01:27.221Z,100531.55
2018-06-14T07:03:55.168Z,100534.72
2018-06-14T07:06:23.049Z,100536.39
2018-06-14T07:08:50.941Z,100534.59
2018-06-14T07:11:18.911Z,100532.31
2018-06-14T07:13:46.774Z,100533.53
2018-06-14T07:16:14.718Z,100533.17
2018-06-14T07:18:42.582Z,100536.15
2018-06-14T07:21:10.617Z,100534.16
2018-06-14T07:23:38.464Z,100531.00
2018-06-14T07:26:06.381Z,100525.77
2018-06-14T07:28:34.237Z,100517.95
2018-06-14T07:31:02.024Z,100520.84
2018-06-14T07:33:30.065Z,100523.23
2018-06-14T07:35:57.889Z,100522.98
2018-06-14T07:38:25.878Z,100521.84
2018-06-14T07:40:55.061Z,100525.30
2018-06-14T07:43:22.917Z,100521.42
2018-06-14T07:45:51.463Z,100521.89
2018-06-14T07:48:19.396Z,100522.25
2018-06-14T07:50:47.237Z,100521.33
2018-06-14T07:53:15.085Z,100519.98
2018-06-14T07:55:44.218Z,100522.83
2018-06-14T07:58:12.083Z,100517.00
2018-06-14T08:00:39.987Z,100519.60
2018-06-14T08:03:11.043Z,100518.29
2018-06-14T08:05:39.017Z,100516.58
2018-06-14T08:08:06.858Z,100519.19
2018-06-14T08:10:34.740Z,100511.52
2018-06-14T08:13:02.730Z,100512.00
2018-06-14T08:15:30.578Z,100507.81
2018-06-14T08:17:58.513Z,100508.11
2018-06-14T08:20:26.589Z,100517.05
2018-06-14T08:22:54.394Z,100512.34
2018-06-14T08:25:22.288Z,100516.36
2018-06-14T08:27:50.190Z,100515.81
2018-06-14T08:30:18.057Z,100516.27
2018-06-14T08:32:45.881Z,100519.05
2018-06-14T08:35:13.817Z,100517.20
2018-06-14T08:37:41.689Z,100525.16
2018-06-14T08:40:09.616Z,100521.00
2018-06-14T08:42:37.437Z,100523.16
2018-06-14T08:45:05.346Z,100526.44
2018-06-14T08:47:33.268Z,100524.04
2018-06-14T08:50:01.141Z,100519.49
2018-06-14T08:52:28.945Z,100514.72
2018-06-14T08:54:56.762Z,100510.53
2018-06-14T08:57:24.669Z,100514.27
2018-06-14T08:59:52.589Z,100516.14
2018-06-14T09:02:20.530Z,100518.31
2018-06-14T09:04:48.350Z,100515.78
2018-06-14T09:07:16.175Z,100515.48
2018-06-14T09:09:44.065Z,100516.59
2018-06-14T09:12:11.999Z,100518.87
2018-06-14T09:14:39.853Z,100507.71
2018-06-14T09:17:07.705Z,100511.08
2018-06-14T09:19:35.672Z,100512.24
2018-06-14T09:22:03.580Z,100506.62
2018-06-14T09:24:31.445Z,100512.94
2018-06-14T09:26:59.316Z,100510.59
2018-06-14T09:29:27.193Z,100510.48
2018-06-14T09:31:55.041Z,100504.33
2018-06-14T09:34:22.933Z,100505.85
2018-06-14T09:36:50.805Z,100506.92
2018-06-14T09:39:18.665Z,100505.89
2018-06-14T09:41:46.548Z,100506.42
2018-06-14T09:44:14.461Z,100502.66
2018-06-14T09:46:46.173Z,100501.77
2018-06-14T09:49:15.092Z,100502.80
2018-06-14T09:51:44.042Z,100507.50
2018-06-14T09:54:11.974Z,100507.54
2018-06-14T09:56:39.901Z,100511.88
2018-06-14T09:59:08.044Z,100512.52
2018-06-14T10:01:35.984Z,100510.88
2018-06-14T10:04:04.142Z,100508.77
2018-06-14T10:06:32.007Z,100505.28
2018-06-14T10:08:59.934Z,100510.30
2018-06-14T10:11:27.782Z,100508.75
2018-06-14T10:13:55.689Z,100507.51
2018-06-14T10:16:23.765Z,100504.95
2018-06-14T10:18:52.405Z,100512.08
2018-06-14T10:21:20.249Z,100511.54
2018-06-14T10:23:48.141Z,100517.53
2018-06-14T10:26:16.082Z,100518.00
2018-06-14T10:28:43.896Z,100508.81
2018-06-14T10:31:11.744Z,100505.29
2018-06-14T10:33:39.597Z,100512.38
2018-06-14T10:36:07.486Z,100508.64
2018-06-14T10:38:35.333Z,100514.21
2018-06-14T10:41:03.255Z,100513.30
2018-06-14T10:43:31.241Z,100520.53
2018-06-14T10:45:59.122Z,100516.05
2018-06-14T10:48:27.013Z,100518.59
2018-06-14T10:50:55.389Z,100515.20
2018-06-14T10:53:23.334Z,100515.09
2018-06-14T10:55:51.221Z,100510.77
2018-06-14T10:58:19.057Z,100509.91
2018-06-14T11:00:47.357Z,100503.38
2018-06-14T11:03:15.201Z,100496.60
2018-06-14T11:05:43.080Z,100499.98
2018-06-14T11:08:10.936Z,100501.00
2018-06-14T11:10:38.716Z,100492.36
2018-06-14T11:13:06.647Z,100492.34
2018-06-14T11:15:34.536Z,100491.00
2018-06-14T11:18:02.453Z,100484.37
2018-06-14T11:20:30.289Z,100481.30
2018-06-14T11:22:58.109Z,100481.15
2018-06-14T11:25:25.969Z,100475.36
2018-06-14T11:27:53.933Z,100475.27
2018-06-14T11:30:22.023Z,100468.71
2018-06-14T11:32:49.865Z,100468.69
2018-06-14T11:35:17.820Z,100468.22
2018-06-14T11:37:45.672Z,100467.83
2018-06-14T11:40:13.541Z,100467.36
2018-06-14T11:42:41.416Z,100465.95
2018-06-14T11:45:09.300Z,100458.67
2018-06-14T11:47:37.127Z,100456.45
2018-06-14T11:50:05.020Z,100448.38
2018-06-14T11:52:32.916Z,100448.22
2018-06-14T11:55:00.730Z,100446.59
2018-06-14T11:57:28.537Z,100444.83
2018-06-14T11:59:56.516Z,100448.69
2018-06-14T12:02:24.389Z,100442.48
2018-06-14T12:04:52.440Z,100447.20
2018-06-14T12:07:20.292Z,100452.22
2018-06-14T12:09:48.160Z,100444.58
2018-06-14T12:12:16.495Z,100443.08
2018-06-14T12:14:44.394Z,100445.28
2018-06-14T12:17:12.305Z,100443.28
2018-06-14T12:19:40.281Z,100433.31
2018-06-14T12:22:08.165Z,100433.58
2018-06-14T12:24:36.042Z,100425.99
2018-06-14T12:27:04.381Z,100429.72
2018-06-14T12:29:32.233Z,100427.06
2018-06-14T12:32:00.099Z,100424.18
2018-06-14T12:34:28.019Z,100428.88
2018-06-14T12:36:55.965Z,100423.91
2018-06-14T12:39:23.826Z,100423.37
2018-06-14T12:41:51.701Z,100420.27
2018-06-14T12:44:19.564Z,100414.64
2018-06-14T12:46:47.529Z,100407.54
2018-06-14T12:49:15.505Z,100405.92
2018-06-14T12:51:43.336Z,100405.39
2018-06-14T12:54:11.202Z,100410.73
2018-06-14T12:56:39.069Z,100403.08
2018-06-14T12:59:06.952Z,100398.84
2018-06-14T13:01:34.817Z,100389.34
2018-06-14T13:04:02.760Z,100393.46
2018-06-14T13:06:30.577Z,100391.11
2018-06-14T13:08:58.486Z,100393.10
2018-06-14T13:11:26.301Z,100388.27
2018-06-14T13:13:54.157Z,100392.87
2018-06-14T13:16:22.145Z,100393.17
2018-06-14T13:18:49.998Z,100383.56
2018-06-14T13:21:17.857Z,100380.64
2018-06-14T13:23:45.861Z,100378.73
2018-06-14T13:26:13.794Z,100381.00
2018-06-14T13:28:41.661Z,100381.91
2018-06-14T13:31:09.731Z,100376.63
2018-06-14T13:33:37.642Z,100376.44
2018-06-14T13:36:06.184Z,100382.14
2018-06-14T13:38:34.058Z,100373.30
2018-06-14T13:41:02.024Z,100378.27
2018-06-14T13:43:29.921Z,100372.28
2018-06-14T13:46:00.335Z,100361.93
2018-06-14T13:48:31.349Z,100366.66
2018-06-14T13:50:59.517Z,100363.84
2018-06-14T13:53:27.498Z,100361.88
2018-06-14T13:55:55.361Z,100358.49
2018-06-14T13:58:27.839Z,100362.72
2018-06-14T14:00:55.817Z,100358.27
2018-06-14T14:03:23.680Z,100354.90
2018-06-14T14:05:53.753Z,100354.68
2018-06-14T14:08:21.838Z,100353.05
2018-06-14T14:10:50.034Z,100350.11
2018-06-14T14:13:17.877Z,100346.03
2018-06-14T14:15:45.877Z,100355.47
2018-06-14T14:18:14.741Z,100351.70
2018-06-14T14:20:48.722Z,100347.52
2018-06-14T14:23:17.126Z,100354.59
2018-06-14T14:25:45.012Z,100353.56
2018-06-14T14:28:12.874Z,100350.80
2018-06-14T14:30:40.733Z,100351.17
2018-06-14T14:33:08.653Z,100347.91
2018-06-14T14:35:38.474Z,100343.98
2018-06-14T14:38:06.441Z,100344.80
2018-06-14T14:40:34.344Z,100335.17
2018-06-14T14:43:02.206Z,100339.06
2018-06-14T14:45:30.161Z,100342.03
2018-06-14T14:47:58.448Z,100340.44
2018-06-14T14:50:26.714Z,100337.60
2018-06-14T14:52:54.659Z,100333.24
2018-06-14T14:55:22.525Z,100335.16
2018-06-14T14:57:50.733Z,100341.22
2018-06-14T15:00:18.657Z,100342.55
2018-06-14T15:02:47.725Z,100338.55
2018-06-14T15:05:15.645Z,100338.30
2018-06-14T15:07:43.575Z,100343.44
2018-06-14T15:10:13.181Z,100335.91
2018-06-14T15:12:43.919Z,100333.24
2018-06-14T15:15:11.802Z,100338.73
2018-06-14T15:17:40.154Z,100342.61
2018-06-14T15:20:08.180Z,100342.85
2018-06-14T15:22:36.074Z,100338.23
2018-06-14T15:25:09.451Z,100330.30
2018-06-14T15:27:37.572Z,100332.53
2018-06-14T15:30:05.399Z,100325.24
2018-06-14T15:32:33.274Z,100328.04
2018-06-14T15:35:01.179Z,100319.83
2018-06-14T15:37:28.985Z,100329.97
2018-06-14T15:39:56.880Z,100332.92
2018-06-14T15:42:28.624Z,100334.86
2018-06-14T15:44:56.834Z,100331.45
2018-06-14T15:47:24.738Z,100333.67
2018-06-14T15:49:52.681Z,100330.88
2018-06-14T15:52:20.569Z,100331.73
2018-06-14T15:55:05.885Z,100322.23
2018-06-14T15:57:33.800Z,100326.83
2018-06-14T16:00:01.617Z,100321.87
2018-06-14T16:02:29.516Z,100319.91
2018-06-14T16:04:57.458Z,100325.77
2018-06-14T16:07:25.236Z,100317.41
2018-06-14T16:09:53.075Z,100317.12
2018-06-14T16:12:21.135Z,100308.67
2018-06-14T16:14:48.988Z,100314.13
2018-06-14T16:17:16.885Z,100310.93
2018-06-14T16:19:44.725Z,100318.13
2018-06-14T16:22:12.544Z,100320.41
2018-06-14T16:24:40.641Z,100317.13
2018-06-14T16:27:08.598Z,100317.45
2018-06-14T16:29:36.505Z,100315.56
2018-06-14T16:32:04.448Z,100315.18
2018-06-14T16:34:32.346Z,100312.80
2018-06-14T16:37:00.224Z,100308.69
2018-06-14T16:39:28.086Z,100304.66
2018-06-14T16:41:55.927Z,100305.66
2018-06-14T16:44:23.901Z,100311.80
2018-06-14T16:46:51.801Z,100308.12
2018-06-14T16:49:19.565Z,100304.42
2018-06-14T16:51:47.532Z,100308.91
2018-06-14T16:54:15.372Z,100308.91
2018-06-14T16:56:43.306Z,100308.67
2018-06-14T16:59:11.198Z,100314.34
2018-06-14T17:01:39.044Z,100309.49
2018-06-14T17:04:06.880Z,100312.92
2018-06-14T17:06:35.320Z,100312.67
2018-06-14T17:09:04.833Z,100312.43
2018-06-14T17:11:32.689Z,100316.03
2018-06-14T17:14:00.626Z,100307.12
2018-06-14T17:16:28.569Z,100312.77
2018-06-14T17:18:56.421Z,100315.64
2018-06-14T17:21:24.285Z,100312.19
2018-06-14T17:23:52.141Z,100319.26
2018-06-14T17:26:20.034Z,100308.52
2018-06-14T17:28:47.942Z,100312.52
2018-06-14T17:31:16.365Z,100322.20
2018-06-14T17:33:44.321Z,100318.78
2018-06-14T17:36:12.320Z,100320.12
2018-06-14T17:38:40.092Z,100319.73
2018-06-14T17:41:08.060Z,100327.87
2018-06-14T17:43:35.929Z,100326.62
2018-06-14T17:46:04.163Z,100329.98
2018-06-14T17:48:32.081Z,100337.27
2018-06-14T17:50:59.946Z,100332.98
2018-06-14T17:53:27.900Z,100333.47
2018-06-14T17:55:55.829Z,100328.64
2018-06-14T17:58:28.725Z,100328.69
2018-06-14T18:00:56.718Z,100328.75
2018-06-14T18:03:24.644Z,100335.09
2018-06-14T18:05:52.501Z,100331.72
2018-06-14T18:08:20.377Z,100339.55
2018-06-14T18:10:48.325Z,100338.31
2018-06-14T18:13:16.221Z,100342.63
2018-06-14T18:15:44.045Z,100340.05
2018-06-14T18:18:11.981Z,100346.12
2018-06-14T18:20:39.863Z,100345.51
2018-06-14T18:23:07.786Z,100353.67
2018-06-14T18:25:35.664Z,100353.91
2018-06-14T18:28:03.511Z,100351.86
2018-06-14T18:30:31.385Z,100353.59
2018-06-14T18:32:59.244Z,100356.07
2018-06-14T18:35:27.156Z,100357.53
2018-06-14T18:37:54.958Z,100359.81
2018-06-14T18:40:22.849Z,100360.04
2018-06-14T18:42:50.650Z,100367.34
2018-06-14T18:45:18.553Z,100365.24
2018-06-14T18:47:46.544Z,100373.70
2018-06-14T18:50:17.806Z,100380.09
2018-06-14T18:52:45.868Z,100373.39
2018-06-14T18:55:13.721Z,100384.91
2018-06-14T18:57:41.606Z,100385.66
2018-06-14T19:00:09.500Z,100387.20
2018-06-14T19:02:37.443Z,100392.77
2018-06-14T19:05:05.406Z,100380.55
2018-06-14T19:07:33.390Z,100388.73
2018-06-14T19:10:01.237Z,100390.92
2018-06-14T19:12:29.197Z,100397.48
2018-06-14T19:14:57.156Z,100401.75
2018-06-14T19:17:25.092Z,100406.84
2018-06-14T19:19:52.913Z,100410.09
2018-06-14T19:22:20.761Z,100411.65
2018-06-14T19:24:48.726Z,100415.31
2018-06-14T19:27:16.671Z,100419.33
2018-06-14T19:29:44.592Z,100417.78
2018-06-14T19:32:12.525Z,100425.64
2018-06-14T19:34:40.365Z,100420.48
2018-06-14T19:37:08.254Z,100428.15
2018-06-14T19:39:36.176Z,100427.64
2018-06-14T19:42:04.169Z,100433.26
2018-06-14T19:44:32.028Z,100435.55
2018-06-14T19:46:59.989Z,100438.41
2018-06-14T19:49:27.829Z,100439.47
2018-06-14T19:51:56.309Z,100449.02
2018-06-14T19:54:25.125Z,100445.07
2018-06-14T19:56:55.222Z,100448.22
2018-06-14T19:59:23.184Z,100449.11
2018-06-14T20:01:51.228Z,100449.42
2018-06-14T20:04:19.530Z,100445.91
2018-06-14T20:06:47.437Z,100449.50
2018-06-14T20:09:15.397Z,100451.58
2018-06-14T20:11:43.372Z,100446.72
2018-06-14T20:14:11.353Z,100448.55
2018-06-14T20:16:44.769Z,100446.86
2018-06-14T20:19:12.824Z,100455.49
2018-06-14T20:21:40.654Z,100457.21
2018-06-14T20:24:10.036Z,100455.56
2018-06-14T20:26:37.914Z,100453.35
2018-06-14T20:29:05.885Z,100450.14
2018-06-14T20:31:34.284Z,100453.86
2018-06-14T20:34:02.156Z,100450.16
2018-06-14T20:36:30.077Z,100453.73
2018-06-14T20:38:58.280Z,100457.71
2018-06-14T20:41:26.552Z,100458.04
2018-06-14T20:43:54.525Z,100462.20
2018-06-14T20:46:22.563Z,100460.61
2018-06-14T20:48:50.610Z,100461.11
2018-06-14T20:51:18.590Z,100464.14
2018-06-14T20:53:46.505Z,100464.53
2018-06-14T20:56:14.380Z,100463.58
2018-06-14T20:58:42.314Z,100476.08
2018-06-14T21:01:10.165Z,100482.81
2018-06-14T21:03:38.024Z,100481.01
2018-06-14T21:06:05.932Z,100479.05
2018-06-14T21:08:33.793Z,100484.56
2018-06-14T21:11:01.684Z,100485.02
2018-06-14T21:13:29.590Z,100488.36
2018-06-14T21:15:57.525Z,100490.73
2018-06-14T21:18:25.504Z,100496.64
2018-06-14T21:20:53.522Z,100505.84
2018-06-14T21:23:21.292Z,100504.27
2018-06-14T21:25:49.100Z,100505.05
2018-06-14T21:28:16.988Z,100508.86
2018-06-14T21:30:44.844Z,100504.14
2018-06-14T21:33:12.653Z,100507.56
2018-06-14T21:35:40.488Z,100509.59
2018-06-14T21:38:08.361Z,100515.73
2018-06-14T21:40:36.297Z,100520.06
2018-06-14T21:43:04.441Z,100524.84
2018-06-14T21:45:32.320Z,100531.63
2018-06-14T21:48:00.364Z,100537.51
2018-06-14T21:50:28.206Z,100534.86
2018-06-14T21:52:56.041Z,100538.24
2018-06-14T21:55:24.150Z,100532.77
2018-06-14T21:57:52.020Z,100538.86
2018-06-14T22:00:22.347Z,100536.95
2018-06-14T22:02:55.980Z,100533.09
2018-06-14T22:05:24.034Z,100537.52
2018-06-14T22:07:52.237Z,100533.13
2018-06-14T22:10:20.121Z,100540.67
2018-06-14T22:12:47.998Z,100539.82
2018-06-14T22:15:15.924Z,100534.86
2018-06-14T22:17:43.878Z,100540.67
2018-06-14T22:20:11.694Z,100545.11
2018-06-14T22:22:39.696Z,100545.11
2018-06-14T22:25:07.607Z,100544.81
2018-06-14T22:27:35.489Z,100544.83
2018-06-14T22:30:04.908Z,100547.88
2018-06-14T22:32:33.070Z,100545.11
2018-06-14T22:35:25.844Z,100544.30
2018-06-14T22:37:54.595Z,100548.43
2018-06-14T22:40:22.609Z,100536.54
2018-06-14T22:42:50.514Z,100539.60
2018-06-14T22:45:18.353Z,100542.06
2018-06-14T22:47:46.340Z,100545.12
2018-06-14T22:50:14.228Z,100547.59
2018-06-14T22:53:13.293Z,100545.66
2018-06-14T22:55:41.209Z,100553.40
2018-06-14T22:58:09.113Z,100555.08
2018-06-14T23:01:59.369Z,100548.16
2018-06-14T23:04:28.129Z,100543.46
2018-06-14T23:06:56.533Z,100548.17
2018-06-14T23:10:44.076Z,100542.08
2018-06-14T23:13:14.018Z,100549.83
2018-06-14T23:15:41.999Z,100546.50
2018-06-14T23:18:09.879Z,100548.42
2018-06-14T23:20:37.956Z,100547.34
2018-06-14T23:23:06.456Z,100542.09
2018-06-14T23:25:36.013Z,100547.88
2018-06-14T23:28:04.030Z,100547.89
2018-06-14T23:30:31.948Z,100550.92
2018-06-14T23:33:02.048Z,100551.47
2018-06-14T23:35:30.245Z,100544.85
2018-06-14T23:37:58.220Z,100542.63
2018-06-14T23:40:26.117Z,100548.44
2018-06-14T23:42:54.023Z,100543.47
2018-06-14T23:45:21.913Z,100546.50
2018-06-14T23:47:49.781Z,100545.94
2018-06-14T23:50:17.692Z,100544.84
2018-06-14T23:52:45.618Z,100549.52
2018-06-14T23:55:13.558Z,100549.27
2018-06-14T23:57:41.453Z,100548.44
